sensor_id;sensor_type;location;lat;lon;timestamp;P1;durP1;ratioP1;P2;durP2;ratioP2
23376;SDS011;14353;46.070;13.222;2023-10-31T00:02:13;4.95;;;1.90;;
23376;SDS011;14353;46.070;13.222;2023-10-31T00:04:39;4.93;;;1.83;;
23376;SDS011;14353;46.070;13.222;2023-10-31T00:07:05;5.70;;;1.92;;
23376;SDS011;14353;46.070;13.222;2023-10-31T00:09:30;4.78;;;1.95;;
23376;SDS011;14353;46.070;13.222;2023-10-31T00:11:57;5.57;;;1.95;;
23376;SDS011;14353;46.070;13.222;2023-10-31T00:14:23;5.45;;;2.28;;
23376;SDS011;14353;46.070;13.222;2023-10-31T00:16:48;4.47;;;1.90;;
23376;SDS011;14353;46.070;13.222;2023-10-31T00:19:14;4.05;;;1.80;;
23376;SDS011;14353;46.070;13.222;2023-10-31T00:21:40;6.85;;;2.22;;
23376;SDS011;14353;46.070;13.222;2023-10-31T00:24:06;5.35;;;1.88;;
23376;SDS011;14353;46.070;13.222;2023-10-31T00:26:32;5.30;;;2.50;;
23376;SDS011;14353;46.070;13.222;2023-10-31T00:28:57;4.95;;;2.10;;
23376;SDS011;14353;46.070;13.222;2023-10-31T00:31:23;5.25;;;1.88;;
23376;SDS011;14353;46.070;13.222;2023-10-31T00:33:49;5.78;;;2.05;;
23376;SDS011;14353;46.070;13.222;2023-10-31T00:36:14;5.78;;;2.08;;
23376;SDS011;14353;46.070;13.222;2023-10-31T00:38:40;6.25;;;2.20;;
23376;SDS011;14353;46.070;13.222;2023-10-31T00:41:06;7.07;;;2.17;;
23376;SDS011;14353;46.070;13.222;2023-10-31T00:43:32;4.28;;;2.10;;
23376;SDS011;14353;46.070;13.222;2023-10-31T00:45:57;3.63;;;2.10;;
23376;SDS011;14353;46.070;13.222;2023-10-31T00:48:23;6.43;;;1.95;;
23376;SDS011;14353;46.070;13.222;2023-10-31T00:50:49;4.18;;;2.03;;
23376;SDS011;14353;46.070;13.222;2023-10-31T00:53:14;5.00;;;2.03;;
23376;SDS011;14353;46.070;13.222;2023-10-31T00:55:41;5.72;;;2.15;;
23376;SDS011;14353;46.070;13.222;2023-10-31T00:58:07;6.75;;;2.20;;
23376;SDS011;14353;46.070;13.222;2023-10-31T01:00:33;4.55;;;2.08;;
23376;SDS011;14353;46.070;13.222;2023-10-31T01:02:59;5.18;;;2.08;;
23376;SDS011;14353;46.070;13.222;2023-10-31T01:05:25;5.75;;;2.20;;
23376;SDS011;14353;46.070;13.222;2023-10-31T01:07:53;7.15;;;2.30;;
23376;SDS011;14353;46.070;13.222;2023-10-31T01:10:19;6.55;;;2.22;;
23376;SDS011;14353;46.070;13.222;2023-10-31T01:12:45;3.80;;;1.88;;
23376;SDS011;14353;46.070;13.222;2023-10-31T01:15:11;4.43;;;2.00;;
23376;SDS011;14353;46.070;13.222;2023-10-31T01:17:37;5.22;;;2.15;;
23376;SDS011;14353;46.070;13.222;2023-10-31T01:20:03;6.40;;;2.28;;
23376;SDS011;14353;46.070;13.222;2023-10-31T01:22:29;5.78;;;2.00;;
23376;SDS011;14353;46.070;13.222;2023-10-31T01:24:55;5.30;;;2.08;;
23376;SDS011;14353;46.070;13.222;2023-10-31T01:27:20;7.13;;;2.22;;
23376;SDS011;14353;46.070;13.222;2023-10-31T01:29:46;5.68;;;2.20;;
23376;SDS011;14353;46.070;13.222;2023-10-31T01:32:12;4.65;;;2.13;;
23376;SDS011;14353;46.070;13.222;2023-10-31T01:34:37;4.88;;;2.00;;
23376;SDS011;14353;46.070;13.222;2023-10-31T01:37:03;6.28;;;2.22;;
23376;SDS011;14353;46.070;13.222;2023-10-31T01:39:29;7.97;;;2.35;;
23376;SDS011;14353;46.070;13.222;2023-10-31T01:41:55;7.05;;;2.53;;
23376;SDS011;14353;46.070;13.222;2023-10-31T01:44:20;7.22;;;2.40;;
23376;SDS011;14353;46.070;13.222;2023-10-31T01:46:46;4.65;;;1.85;;
23376;SDS011;14353;46.070;13.222;2023-10-31T01:49:13;6.85;;;2.42;;
23376;SDS011;14353;46.070;13.222;2023-10-31T01:51:40;6.00;;;2.22;;
23376;SDS011;14353;46.070;13.222;2023-10-31T01:54:06;5.97;;;2.22;;
23376;SDS011;14353;46.070;13.222;2023-10-31T01:56:34;6.93;;;2.33;;
23376;SDS011;14353;46.070;13.222;2023-10-31T01:59:00;6.70;;;2.28;;
23376;SDS011;14353;46.070;13.222;2023-10-31T02:01:26;6.63;;;2.45;;
23376;SDS011;14353;46.070;13.222;2023-10-31T02:03:53;8.95;;;2.65;;
23376;SDS011;14353;46.070;13.222;2023-10-31T02:06:19;7.32;;;2.28;;
23376;SDS011;14353;46.070;13.222;2023-10-31T02:08:46;6.35;;;2.30;;
23376;SDS011;14353;46.070;13.222;2023-10-31T02:11:13;9.20;;;2.53;;
23376;SDS011;14353;46.070;13.222;2023-10-31T02:13:38;8.60;;;2.35;;
23376;SDS011;14353;46.070;13.222;2023-10-31T02:16:04;8.07;;;2.30;;
23376;SDS011;14353;46.070;13.222;2023-10-31T02:18:30;7.22;;;2.25;;
23376;SDS011;14353;46.070;13.222;2023-10-31T02:20:57;8.32;;;2.30;;
23376;SDS011;14353;46.070;13.222;2023-10-31T02:23:23;6.55;;;2.28;;
23376;SDS011;14353;46.070;13.222;2023-10-31T02:25:48;6.03;;;2.10;;
23376;SDS011;14353;46.070;13.222;2023-10-31T02:28:14;6.32;;;2.08;;
23376;SDS011;14353;46.070;13.222;2023-10-31T02:30:40;10.35;;;2.80;;
23376;SDS011;14353;46.070;13.222;2023-10-31T02:33:06;7.32;;;2.50;;
23376;SDS011;14353;46.070;13.222;2023-10-31T02:35:32;8.00;;;2.58;;
23376;SDS011;14353;46.070;13.222;2023-10-31T02:37:58;10.73;;;2.78;;
23376;SDS011;14353;46.070;13.222;2023-10-31T02:40:23;7.47;;;2.70;;
23376;SDS011;14353;46.070;13.222;2023-10-31T02:42:49;8.65;;;2.63;;
23376;SDS011;14353;46.070;13.222;2023-10-31T02:45:15;7.75;;;2.55;;
23376;SDS011;14353;46.070;13.222;2023-10-31T02:47:41;9.00;;;2.72;;
23376;SDS011;14353;46.070;13.222;2023-10-31T02:50:06;8.98;;;2.80;;
23376;SDS011;14353;46.070;13.222;2023-10-31T02:52:33;8.80;;;2.58;;
23376;SDS011;14353;46.070;13.222;2023-10-31T02:54:58;7.35;;;2.58;;
23376;SDS011;14353;46.070;13.222;2023-10-31T02:57:24;7.20;;;2.92;;
23376;SDS011;14353;46.070;13.222;2023-10-31T02:59:50;8.90;;;2.60;;
23376;SDS011;14353;46.070;13.222;2023-10-31T03:02:15;10.90;;;3.00;;
23376;SDS011;14353;46.070;13.222;2023-10-31T03:04:41;12.25;;;2.88;;
23376;SDS011;14353;46.070;13.222;2023-10-31T03:07:07;10.00;;;2.95;;
23376;SDS011;14353;46.070;13.222;2023-10-31T03:09:33;9.75;;;2.78;;
23376;SDS011;14353;46.070;13.222;2023-10-31T03:11:58;7.80;;;2.72;;
23376;SDS011;14353;46.070;13.222;2023-10-31T03:14:24;8.00;;;2.92;;
23376;SDS011;14353;46.070;13.222;2023-10-31T03:16:50;8.88;;;2.90;;
23376;SDS011;14353;46.070;13.222;2023-10-31T03:19:16;9.57;;;3.00;;
23376;SDS011;14353;46.070;13.222;2023-10-31T03:21:41;10.90;;;3.10;;
23376;SDS011;14353;46.070;13.222;2023-10-31T03:24:07;9.77;;;3.13;;
23376;SDS011;14353;46.070;13.222;2023-10-31T03:26:33;8.90;;;2.95;;
23376;SDS011;14353;46.070;13.222;2023-10-31T03:28:58;9.20;;;2.95;;
23376;SDS011;14353;46.070;13.222;2023-10-31T03:31:24;10.25;;;2.92;;
23376;SDS011;14353;46.070;13.222;2023-10-31T03:33:50;10.52;;;2.78;;
23376;SDS011;14353;46.070;13.222;2023-10-31T03:36:16;9.70;;;2.70;;
23376;SDS011;14353;46.070;13.222;2023-10-31T03:38:42;7.45;;;2.50;;
23376;SDS011;14353;46.070;13.222;2023-10-31T03:41:08;8.02;;;3.00;;
23376;SDS011;14353;46.070;13.222;2023-10-31T03:43:34;9.45;;;3.35;;
23376;SDS011;14353;46.070;13.222;2023-10-31T03:46:00;8.80;;;2.80;;
23376;SDS011;14353;46.070;13.222;2023-10-31T03:48:26;10.93;;;3.03;;
23376;SDS011;14353;46.070;13.222;2023-10-31T03:50:51;10.90;;;3.35;;
23376;SDS011;14353;46.070;13.222;2023-10-31T03:53:17;9.35;;;3.13;;
23376;SDS011;14353;46.070;13.222;2023-10-31T03:55:43;7.65;;;2.75;;
23376;SDS011;14353;46.070;13.222;2023-10-31T03:58:09;9.43;;;3.28;;
23376;SDS011;14353;46.070;13.222;2023-10-31T04:00:34;9.43;;;3.08;;
23376;SDS011;14353;46.070;13.222;2023-10-31T04:03:00;7.30;;;2.65;;
23376;SDS011;14353;46.070;13.222;2023-10-31T04:05:26;7.53;;;2.55;;
23376;SDS011;14353;46.070;13.222;2023-10-31T04:07:52;7.22;;;3.03;;
23376;SDS011;14353;46.070;13.222;2023-10-31T04:10:18;8.15;;;2.80;;
23376;SDS011;14353;46.070;13.222;2023-10-31T04:12:44;8.40;;;2.83;;
23376;SDS011;14353;46.070;13.222;2023-10-31T04:15:10;7.78;;;2.92;;
23376;SDS011;14353;46.070;13.222;2023-10-31T04:17:36;9.88;;;2.70;;
23376;SDS011;14353;46.070;13.222;2023-10-31T04:20:02;10.18;;;3.13;;
23376;SDS011;14353;46.070;13.222;2023-10-31T04:22:28;9.93;;;3.25;;
23376;SDS011;14353;46.070;13.222;2023-10-31T04:24:54;7.28;;;2.67;;
23376;SDS011;14353;46.070;13.222;2023-10-31T04:27:21;10.07;;;2.88;;
23376;SDS011;14353;46.070;13.222;2023-10-31T04:29:47;9.77;;;2.70;;
23376;SDS011;14353;46.070;13.222;2023-10-31T04:32:12;9.45;;;2.75;;
23376;SDS011;14353;46.070;13.222;2023-10-31T04:34:38;9.23;;;2.72;;
23376;SDS011;14353;46.070;13.222;2023-10-31T04:37:04;12.23;;;3.13;;
23376;SDS011;14353;46.070;13.222;2023-10-31T04:39:30;10.00;;;3.25;;
23376;SDS011;14353;46.070;13.222;2023-10-31T04:41:56;8.50;;;3.10;;
23376;SDS011;14353;46.070;13.222;2023-10-31T04:44:22;8.32;;;2.70;;
23376;SDS011;14353;46.070;13.222;2023-10-31T04:46:47;8.13;;;3.00;;
23376;SDS011;14353;46.070;13.222;2023-10-31T04:49:13;7.78;;;2.55;;
23376;SDS011;14353;46.070;13.222;2023-10-31T04:51:40;8.63;;;2.75;;
23376;SDS011;14353;46.070;13.222;2023-10-31T04:54:06;7.10;;;2.53;;
23376;SDS011;14353;46.070;13.222;2023-10-31T04:56:32;8.20;;;2.78;;
23376;SDS011;14353;46.070;13.222;2023-10-31T04:58:58;6.53;;;2.60;;
23376;SDS011;14353;46.070;13.222;2023-10-31T05:01:24;9.77;;;2.80;;
23376;SDS011;14353;46.070;13.222;2023-10-31T05:03:50;6.10;;;2.65;;
23376;SDS011;14353;46.070;13.222;2023-10-31T05:06:19;7.53;;;2.78;;
23376;SDS011;14353;46.070;13.222;2023-10-31T05:08:45;8.05;;;2.88;;
23376;SDS011;14353;46.070;13.222;2023-10-31T05:11:11;8.75;;;2.95;;
23376;SDS011;14353;46.070;13.222;2023-10-31T05:13:38;8.20;;;3.00;;
23376;SDS011;14353;46.070;13.222;2023-10-31T05:16:04;7.03;;;2.65;;
23376;SDS011;14353;46.070;13.222;2023-10-31T05:18:30;8.73;;;2.65;;
23376;SDS011;14353;46.070;13.222;2023-10-31T05:20:56;6.47;;;2.55;;
23376;SDS011;14353;46.070;13.222;2023-10-31T05:23:22;9.25;;;2.80;;
23376;SDS011;14353;46.070;13.222;2023-10-31T05:25:47;7.97;;;2.83;;
23376;SDS011;14353;46.070;13.222;2023-10-31T05:28:13;7.00;;;2.50;;
23376;SDS011;14353;46.070;13.222;2023-10-31T05:30:38;8.40;;;2.58;;
23376;SDS011;14353;46.070;13.222;2023-10-31T05:33:04;7.00;;;2.60;;
23376;SDS011;14353;46.070;13.222;2023-10-31T05:35:30;6.50;;;3.13;;
23376;SDS011;14353;46.070;13.222;2023-10-31T05:37:56;6.72;;;2.53;;
23376;SDS011;14353;46.070;13.222;2023-10-31T05:40:21;8.05;;;2.50;;
23376;SDS011;14353;46.070;13.222;2023-10-31T05:42:49;8.40;;;2.60;;
23376;SDS011;14353;46.070;13.222;2023-10-31T05:45:15;7.90;;;2.47;;
23376;SDS011;14353;46.070;13.222;2023-10-31T05:47:41;7.55;;;2.80;;
23376;SDS011;14353;46.070;13.222;2023-10-31T05:50:07;10.02;;;2.58;;
23376;SDS011;14353;46.070;13.222;2023-10-31T05:52:33;9.70;;;2.75;;
23376;SDS011;14353;46.070;13.222;2023-10-31T05:54:59;6.30;;;2.50;;
23376;SDS011;14353;46.070;13.222;2023-10-31T05:57:25;7.75;;;2.83;;
23376;SDS011;14353;46.070;13.222;2023-10-31T05:59:51;6.68;;;2.55;;
23376;SDS011;14353;46.070;13.222;2023-10-31T06:02:17;7.60;;;2.83;;
23376;SDS011;14353;46.070;13.222;2023-10-31T06:04:42;8.50;;;2.58;;
23376;SDS011;14353;46.070;13.222;2023-10-31T06:07:10;7.85;;;3.10;;
23376;SDS011;14353;46.070;13.222;2023-10-31T06:09:36;8.50;;;2.65;;
23376;SDS011;14353;46.070;13.222;2023-10-31T06:12:02;6.53;;;2.53;;
23376;SDS011;14353;46.070;13.222;2023-10-31T06:14:28;5.97;;;2.25;;
23376;SDS011;14353;46.070;13.222;2023-10-31T06:16:54;7.32;;;2.88;;
23376;SDS011;14353;46.070;13.222;2023-10-31T06:19:21;9.90;;;2.60;;
23376;SDS011;14353;46.070;13.222;2023-10-31T06:21:47;5.45;;;2.30;;
23376;SDS011;14353;46.070;13.222;2023-10-31T06:24:13;8.02;;;2.95;;
23376;SDS011;14353;46.070;13.222;2023-10-31T06:26:39;5.95;;;2.42;;
23376;SDS011;14353;46.070;13.222;2023-10-31T06:29:05;7.90;;;2.63;;
23376;SDS011;14353;46.070;13.222;2023-10-31T06:31:30;8.50;;;2.83;;
23376;SDS011;14353;46.070;13.222;2023-10-31T06:33:56;6.75;;;2.58;;
23376;SDS011;14353;46.070;13.222;2023-10-31T06:36:22;6.85;;;2.67;;
23376;SDS011;14353;46.070;13.222;2023-10-31T06:38:48;8.25;;;2.67;;
23376;SDS011;14353;46.070;13.222;2023-10-31T06:41:13;6.75;;;2.65;;
23376;SDS011;14353;46.070;13.222;2023-10-31T06:43:39;7.22;;;2.50;;
23376;SDS011;14353;46.070;13.222;2023-10-31T06:46:05;5.70;;;2.63;;
23376;SDS011;14353;46.070;13.222;2023-10-31T06:48:31;10.07;;;2.60;;
23376;SDS011;14353;46.070;13.222;2023-10-31T06:50:57;6.05;;;2.17;;
23376;SDS011;14353;46.070;13.222;2023-10-31T06:53:23;6.80;;;2.63;;
23376;SDS011;14353;46.070;13.222;2023-10-31T06:55:49;7.05;;;2.70;;
23376;SDS011;14353;46.070;13.222;2023-10-31T06:58:15;5.40;;;2.13;;
23376;SDS011;14353;46.070;13.222;2023-10-31T07:00:40;7.53;;;2.50;;
23376;SDS011;14353;46.070;13.222;2023-10-31T07:03:06;5.38;;;2.20;;
23376;SDS011;14353;46.070;13.222;2023-10-31T07:05:37;5.40;;;2.25;;
23376;SDS011;14353;46.070;13.222;2023-10-31T07:08:05;5.60;;;2.10;;
23376;SDS011;14353;46.070;13.222;2023-10-31T07:10:34;5.03;;;2.10;;
23376;SDS011;14353;46.070;13.222;2023-10-31T07:13:01;5.53;;;2.30;;
23376;SDS011;14353;46.070;13.222;2023-10-31T07:15:28;7.53;;;2.50;;
23376;SDS011;14353;46.070;13.222;2023-10-31T07:17:53;8.80;;;3.08;;
23376;SDS011;14353;46.070;13.222;2023-10-31T07:20:19;5.68;;;2.17;;
23376;SDS011;14353;46.070;13.222;2023-10-31T07:22:45;6.93;;;2.20;;
23376;SDS011;14353;46.070;13.222;2023-10-31T07:25:14;6.95;;;2.22;;
23376;SDS011;14353;46.070;13.222;2023-10-31T07:27:40;6.00;;;2.33;;
23376;SDS011;14353;46.070;13.222;2023-10-31T07:30:06;5.93;;;2.25;;
23376;SDS011;14353;46.070;13.222;2023-10-31T07:32:32;6.63;;;2.53;;
23376;SDS011;14353;46.070;13.222;2023-10-31T07:34:58;6.80;;;2.45;;
23376;SDS011;14353;46.070;13.222;2023-10-31T07:37:23;9.82;;;2.20;;
23376;SDS011;14353;46.070;13.222;2023-10-31T07:39:52;6.30;;;2.08;;
23376;SDS011;14353;46.070;13.222;2023-10-31T07:42:18;5.70;;;2.22;;
23376;SDS011;14353;46.070;13.222;2023-10-31T07:44:44;5.35;;;2.20;;
23376;SDS011;14353;46.070;13.222;2023-10-31T07:47:10;7.15;;;2.03;;
23376;SDS011;14353;46.070;13.222;2023-10-31T07:49:36;7.20;;;2.20;;
23376;SDS011;14353;46.070;13.222;2023-10-31T07:52:01;6.57;;;2.38;;
23376;SDS011;14353;46.070;13.222;2023-10-31T07:54:27;5.90;;;2.00;;
23376;SDS011;14353;46.070;13.222;2023-10-31T07:56:53;6.75;;;2.40;;
23376;SDS011;14353;46.070;13.222;2023-10-31T07:59:21;7.65;;;1.90;;
23376;SDS011;14353;46.070;13.222;2023-10-31T08:01:47;7.75;;;2.08;;
23376;SDS011;14353;46.070;13.222;2023-10-31T08:04:13;8.38;;;2.35;;
23376;SDS011;14353;46.070;13.222;2023-10-31T08:06:41;6.50;;;2.08;;
23376;SDS011;14353;46.070;13.222;2023-10-31T08:09:07;8.10;;;2.20;;
23376;SDS011;14353;46.070;13.222;2023-10-31T08:11:33;9.63;;;2.58;;
23376;SDS011;14353;46.070;13.222;2023-10-31T08:14:00;8.23;;;2.38;;
23376;SDS011;14353;46.070;13.222;2023-10-31T08:16:28;7.50;;;2.92;;
23376;SDS011;14353;46.070;13.222;2023-10-31T08:18:53;10.63;;;2.40;;
23376;SDS011;14353;46.070;13.222;2023-10-31T08:21:19;6.60;;;1.95;;
23376;SDS011;14353;46.070;13.222;2023-10-31T08:23:45;7.05;;;2.38;;
23376;SDS011;14353;46.070;13.222;2023-10-31T08:26:11;7.43;;;2.38;;
23376;SDS011;14353;46.070;13.222;2023-10-31T08:28:37;8.95;;;2.05;;
23376;SDS011;14353;46.070;13.222;2023-10-31T08:31:03;8.55;;;2.08;;
23376;SDS011;14353;46.070;13.222;2023-10-31T08:33:29;9.20;;;2.65;;
23376;SDS011;14353;46.070;13.222;2023-10-31T08:35:55;5.50;;;2.00;;
23376;SDS011;14353;46.070;13.222;2023-10-31T08:38:21;11.15;;;2.30;;
23376;SDS011;14353;46.070;13.222;2023-10-31T08:40:46;6.03;;;2.20;;
23376;SDS011;14353;46.070;13.222;2023-10-31T08:43:14;5.47;;;1.77;;
23376;SDS011;14353;46.070;13.222;2023-10-31T08:45:39;9.07;;;2.13;;
23376;SDS011;14353;46.070;13.222;2023-10-31T08:48:05;8.93;;;1.98;;
23376;SDS011;14353;46.070;13.222;2023-10-31T08:50:31;9.57;;;2.40;;
23376;SDS011;14353;46.070;13.222;2023-10-31T08:52:56;7.57;;;1.90;;
23376;SDS011;14353;46.070;13.222;2023-10-31T08:55:22;16.88;;;1.98;;
23376;SDS011;14353;46.070;13.222;2023-10-31T08:57:48;5.95;;;1.95;;
23376;SDS011;14353;46.070;13.222;2023-10-31T09:00:14;10.63;;;2.30;;
23376;SDS011;14353;46.070;13.222;2023-10-31T09:02:40;6.15;;;2.08;;
23376;SDS011;14353;46.070;13.222;2023-10-31T09:05:06;9.23;;;2.10;;
23376;SDS011;14353;46.070;13.222;2023-10-31T09:07:31;10.23;;;1.90;;
23376;SDS011;14353;46.070;13.222;2023-10-31T09:09:58;11.55;;;2.20;;
23376;SDS011;14353;46.070;13.222;2023-10-31T09:12:24;6.45;;;1.83;;
23376;SDS011;14353;46.070;13.222;2023-10-31T09:14:50;10.23;;;2.25;;
23376;SDS011;14353;46.070;13.222;2023-10-31T09:17:15;7.07;;;1.95;;
23376;SDS011;14353;46.070;13.222;2023-10-31T09:19:41;10.23;;;2.20;;
23376;SDS011;14353;46.070;13.222;2023-10-31T09:22:07;5.45;;;1.88;;
23376;SDS011;14353;46.070;13.222;2023-10-31T09:24:33;8.45;;;1.60;;
23376;SDS011;14353;46.070;13.222;2023-10-31T09:26:59;6.40;;;1.77;;
23376;SDS011;14353;46.070;13.222;2023-10-31T09:29:24;8.68;;;2.05;;
23376;SDS011;14353;46.070;13.222;2023-10-31T09:31:50;13.57;;;2.25;;
23376;SDS011;14353;46.070;13.222;2023-10-31T09:34:16;7.50;;;1.73;;
23376;SDS011;14353;46.070;13.222;2023-10-31T09:36:43;10.50;;;2.30;;
23376;SDS011;14353;46.070;13.222;2023-10-31T09:39:08;11.13;;;1.67;;
23376;SDS011;14353;46.070;13.222;2023-10-31T09:41:34;7.90;;;1.80;;
23376;SDS011;14353;46.070;13.222;2023-10-31T09:44:00;7.50;;;1.90;;
23376;SDS011;14353;46.070;13.222;2023-10-31T09:46:27;5.80;;;1.80;;
23376;SDS011;14353;46.070;13.222;2023-10-31T09:48:53;7.75;;;1.88;;
23376;SDS011;14353;46.070;13.222;2023-10-31T09:51:21;7.30;;;1.70;;
23376;SDS011;14353;46.070;13.222;2023-10-31T09:53:47;7.18;;;1.70;;
23376;SDS011;14353;46.070;13.222;2023-10-31T09:56:15;6.32;;;1.85;;
23376;SDS011;14353;46.070;13.222;2023-10-31T09:58:42;8.95;;;1.95;;
23376;SDS011;14353;46.070;13.222;2023-10-31T10:01:08;10.73;;;1.70;;
23376;SDS011;14353;46.070;13.222;2023-10-31T10:03:34;12.10;;;1.63;;
23376;SDS011;14353;46.070;13.222;2023-10-31T10:05:59;6.82;;;1.63;;
23376;SDS011;14353;46.070;13.222;2023-10-31T10:08:27;9.57;;;2.05;;
23376;SDS011;14353;46.070;13.222;2023-10-31T10:10:52;8.60;;;1.60;;
23376;SDS011;14353;46.070;13.222;2023-10-31T10:13:20;7.68;;;1.73;;
23376;SDS011;14353;46.070;13.222;2023-10-31T10:15:46;11.27;;;1.50;;
23376;SDS011;14353;46.070;13.222;2023-10-31T10:18:32;9.02;;;1.70;;
23376;SDS011;14353;46.070;13.222;2023-10-31T10:21:01;10.55;;;1.73;;
23376;SDS011;14353;46.070;13.222;2023-10-31T10:23:28;9.70;;;2.08;;
23376;SDS011;14353;46.070;13.222;2023-10-31T10:25:55;7.88;;;1.70;;
23376;SDS011;14353;46.070;13.222;2023-10-31T10:28:22;6.15;;;1.73;;
23376;SDS011;14353;46.070;13.222;2023-10-31T10:30:50;6.20;;;1.40;;
23376;SDS011;14353;46.070;13.222;2023-10-31T10:33:16;4.95;;;1.13;;
23376;SDS011;14353;46.070;13.222;2023-10-31T10:35:44;6.43;;;1.50;;
23376;SDS011;14353;46.070;13.222;2023-10-31T10:38:11;5.53;;;1.40;;
23376;SDS011;14353;46.070;13.222;2023-10-31T10:40:42;7.03;;;1.70;;
23376;SDS011;14353;46.070;13.222;2023-10-31T10:43:27;3.20;;;1.38;;
23376;SDS011;14353;46.070;13.222;2023-10-31T10:45:57;4.72;;;1.38;;
23376;SDS011;14353;46.070;13.222;2023-10-31T10:48:24;7.35;;;1.30;;
23376;SDS011;14353;46.070;13.222;2023-10-31T10:51:04;8.05;;;1.60;;
23376;SDS011;14353;46.070;13.222;2023-10-31T10:53:41;10.10;;;1.90;;
23376;SDS011;14353;46.070;13.222;2023-10-31T10:56:25;3.83;;;1.10;;
23376;SDS011;14353;46.070;13.222;2023-10-31T10:58:56;3.92;;;1.40;;
23376;SDS011;14353;46.070;13.222;2023-10-31T11:01:28;9.25;;;1.52;;
23376;SDS011;14353;46.070;13.222;2023-10-31T11:03:58;7.47;;;1.70;;
23376;SDS011;14353;46.070;13.222;2023-10-31T11:06:24;4.90;;;1.45;;
23376;SDS011;14353;46.070;13.222;2023-10-31T11:08:51;8.38;;;1.08;;
23376;SDS011;14353;46.070;13.222;2023-10-31T11:11:18;7.05;;;1.48;;
23376;SDS011;14353;46.070;13.222;2023-10-31T11:13:46;4.00;;;1.38;;
23376;SDS011;14353;46.070;13.222;2023-10-31T11:16:17;7.15;;;1.77;;
23376;SDS011;14353;46.070;13.222;2023-10-31T11:18:52;5.13;;;1.45;;
23376;SDS011;14353;46.070;13.222;2023-10-31T11:21:18;5.75;;;1.30;;
23376;SDS011;14353;46.070;13.222;2023-10-31T11:23:44;7.70;;;1.30;;
23376;SDS011;14353;46.070;13.222;2023-10-31T11:26:10;5.68;;;1.50;;
23376;SDS011;14353;46.070;13.222;2023-10-31T11:28:36;4.80;;;1.10;;
23376;SDS011;14353;46.070;13.222;2023-10-31T11:31:02;6.20;;;1.45;;
23376;SDS011;14353;46.070;13.222;2023-10-31T11:33:28;8.15;;;1.50;;
23376;SDS011;14353;46.070;13.222;2023-10-31T11:36:00;3.90;;;1.13;;
23376;SDS011;14353;46.070;13.222;2023-10-31T11:38:31;6.38;;;1.60;;
23376;SDS011;14353;46.070;13.222;2023-10-31T11:41:00;5.40;;;1.50;;
23376;SDS011;14353;46.070;13.222;2023-10-31T11:43:50;9.07;;;1.42;;
23376;SDS011;14353;46.070;13.222;2023-10-31T11:46:17;6.85;;;1.23;;
23376;SDS011;14353;46.070;13.222;2023-10-31T11:48:46;3.97;;;1.50;;
23376;SDS011;14353;46.070;13.222;2023-10-31T11:51:16;6.15;;;1.30;;
23376;SDS011;14353;46.070;13.222;2023-10-31T11:53:43;3.72;;;1.05;;
23376;SDS011;14353;46.070;13.222;2023-10-31T11:56:09;5.50;;;1.30;;
23376;SDS011;14353;46.070;13.222;2023-10-31T11:58:36;3.58;;;1.08;;
23376;SDS011;14353;46.070;13.222;2023-10-31T12:01:06;5.22;;;1.02;;
23376;SDS011;14353;46.070;13.222;2023-10-31T12:03:43;3.38;;;1.23;;
23376;SDS011;14353;46.070;13.222;2023-10-31T12:06:12;5.57;;;1.23;;
23376;SDS011;14353;46.070;13.222;2023-10-31T12:08:40;10.20;;;1.17;;
23376;SDS011;14353;46.070;13.222;2023-10-31T12:11:14;7.60;;;1.45;;
23376;SDS011;14353;46.070;13.222;2023-10-31T12:13:42;6.82;;;1.25;;
23376;SDS011;14353;46.070;13.222;2023-10-31T12:16:26;7.47;;;1.30;;
23376;SDS011;14353;46.070;13.222;2023-10-31T12:19:02;5.80;;;1.20;;
23376;SDS011;14353;46.070;13.222;2023-10-31T12:21:45;7.00;;;0.93;;
23376;SDS011;14353;46.070;13.222;2023-10-31T12:24:13;9.98;;;1.30;;
23376;SDS011;14353;46.070;13.222;2023-10-31T12:26:40;5.75;;;0.90;;
23376;SDS011;14353;46.070;13.222;2023-10-31T12:29:10;8.38;;;1.00;;
23376;SDS011;14353;46.070;13.222;2023-10-31T12:34:17;4.15;;;0.88;;
23376;SDS011;14353;46.070;13.222;2023-10-31T12:36:46;5.15;;;0.90;;
23376;SDS011;14353;46.070;13.222;2023-10-31T12:39:13;4.25;;;0.68;;
23376;SDS011;14353;46.070;13.222;2023-10-31T12:41:42;4.55;;;0.77;;
23376;SDS011;14353;46.070;13.222;2023-10-31T12:44:08;3.78;;;0.70;;
23376;SDS011;14353;46.070;13.222;2023-10-31T12:46:38;8.10;;;0.90;;
23376;SDS011;14353;46.070;13.222;2023-10-31T12:49:10;8.57;;;0.90;;
23376;SDS011;14353;46.070;13.222;2023-10-31T12:51:59;4.88;;;0.63;;
23376;SDS011;14353;46.070;13.222;2023-10-31T12:54:29;4.03;;;0.80;;
23376;SDS011;14353;46.070;13.222;2023-10-31T12:57:00;3.60;;;0.65;;
23376;SDS011;14353;46.070;13.222;2023-10-31T12:59:26;4.82;;;0.70;;
23376;SDS011;14353;46.070;13.222;2023-10-31T13:01:52;5.22;;;0.90;;
23376;SDS011;14353;46.070;13.222;2023-10-31T13:04:28;4.95;;;0.98;;
23376;SDS011;14353;46.070;13.222;2023-10-31T13:06:58;6.35;;;1.15;;
23376;SDS011;14353;46.070;13.222;2023-10-31T13:09:29;4.65;;;0.90;;
23376;SDS011;14353;46.070;13.222;2023-10-31T13:12:01;4.10;;;0.90;;
23376;SDS011;14353;46.070;13.222;2023-10-31T13:14:29;4.00;;;0.70;;
23376;SDS011;14353;46.070;13.222;2023-10-31T13:16:55;4.25;;;0.80;;
23376;SDS011;14353;46.070;13.222;2023-10-31T13:19:21;5.65;;;0.70;;
23376;SDS011;14353;46.070;13.222;2023-10-31T13:21:47;3.88;;;0.80;;
23376;SDS011;14353;46.070;13.222;2023-10-31T13:24:13;6.20;;;1.00;;
23376;SDS011;14353;46.070;13.222;2023-10-31T13:26:39;3.80;;;0.90;;
23376;SDS011;14353;46.070;13.222;2023-10-31T13:29:05;6.70;;;1.10;;
23376;SDS011;14353;46.070;13.222;2023-10-31T13:31:30;9.65;;;0.70;;
23376;SDS011;14353;46.070;13.222;2023-10-31T13:33:56;4.10;;;0.60;;
23376;SDS011;14353;46.070;13.222;2023-10-31T13:36:22;6.05;;;0.68;;
23376;SDS011;14353;46.070;13.222;2023-10-31T13:38:47;4.03;;;0.88;;
23376;SDS011;14353;46.070;13.222;2023-10-31T13:41:14;1.58;;;0.35;;
23376;SDS011;14353;46.070;13.222;2023-10-31T13:43:39;3.75;;;0.77;;
23376;SDS011;14353;46.070;13.222;2023-10-31T13:46:07;3.78;;;0.60;;
23376;SDS011;14353;46.070;13.222;2023-10-31T13:48:32;1.42;;;0.50;;
23376;SDS011;14353;46.070;13.222;2023-10-31T13:50:58;3.33;;;0.60;;
23376;SDS011;14353;46.070;13.222;2023-10-31T13:53:25;2.83;;;0.60;;
23376;SDS011;14353;46.070;13.222;2023-10-31T13:55:50;3.65;;;0.57;;
23376;SDS011;14353;46.070;13.222;2023-10-31T13:58:16;7.40;;;0.95;;
23376;SDS011;14353;46.070;13.222;2023-10-31T14:00:42;9.25;;;0.90;;
23376;SDS011;14353;46.070;13.222;2023-10-31T14:03:10;8.05;;;0.70;;
23376;SDS011;14353;46.070;13.222;2023-10-31T14:05:35;4.65;;;0.80;;
23376;SDS011;14353;46.070;13.222;2023-10-31T14:08:02;4.82;;;0.57;;
23376;SDS011;14353;46.070;13.222;2023-10-31T14:10:28;1.75;;;0.50;;
23376;SDS011;14353;46.070;13.222;2023-10-31T14:12:56;9.27;;;0.70;;
23376;SDS011;14353;46.070;13.222;2023-10-31T14:15:23;1.35;;;0.50;;
23376;SDS011;14353;46.070;13.222;2023-10-31T14:17:50;3.25;;;0.68;;
23376;SDS011;14353;46.070;13.222;2023-10-31T14:20:16;3.28;;;0.63;;
23376;SDS011;14353;46.070;13.222;2023-10-31T14:22:46;4.88;;;0.60;;
23376;SDS011;14353;46.070;13.222;2023-10-31T14:25:13;3.78;;;0.60;;
23376;SDS011;14353;46.070;13.222;2023-10-31T14:27:40;2.53;;;0.60;;
23376;SDS011;14353;46.070;13.222;2023-10-31T14:30:07;1.70;;;0.57;;
23376;SDS011;14353;46.070;13.222;2023-10-31T14:32:33;3.72;;;0.50;;
23376;SDS011;14353;46.070;13.222;2023-10-31T14:34:59;2.00;;;0.60;;